Myra Eckstein — WDF9473 — position and weather

sailwx.info

Track history (hours):
 
Tides and Currents Weather Stations Pressure Air Temp Water Temp Dewpoint Dewpoint Depression Visibility Wind Speed Wind Dir Waves Ship Positions

Myra Eckstein

Owner: Marquette Transportation Co. LLC, Paducah, KY. More information available from US FCC via Universal Licensing System and Coast Guard Vessel Documentation Center.

Last reported at 2016-Dec-04 22:27 UTC. Time now 2016-Dec-06 08:16 UTC.
Position N 32°38' W 091°09'.

Length 47 m; draft 3.5 m.

Type: Towing. MMSI: 367505510.

Date/timePositionNaut miles runAvg speedWind from/ knotsBaromVisibWave heightAir tempDewpointWater temp
2016-Dec-04 22:27N 32°38' W 091°09'1 1.2
2016-Dec-04 21:33N 32°37' W 091°09'4 3.5
2016-Dec-04 20:32N 32°35' W 091°07'1 1.5
2016-Dec-04 19:33N 32°33' W 091°06'5 4.7
2016-Dec-04 18:33N 32°29' W 091°07'4 3.7
2016-Dec-04 17:33N 32°26' W 091°03'4 4.0
2016-Dec-04 16:33N 32°24' W 090°59'3 3.4
2016-Dec-04 15:33N 32°21' W 090°58'4 3.5
2016-Dec-04 14:33N 32°19' W 090°54'1 1.0
2016-Dec-04 13:33N 32°18' W 090°55'0 0.2
2016-Dec-04 12:33N 32°18' W 090°55'4 3.7
2016-Dec-04 11:33N 32°15' W 090°58'4 4.3
2016-Dec-04 10:33N 32°11' W 090°60'4 4.1
2016-Dec-04 09:32N 32°07' W 091°02'4 2.9
2016-Dec-04 08:14N 32°08' W 091°06'6 3.7
2016-Dec-04 06:29N 32°02' W 091°04'  
2016-Nov-29 22:24N 29°58' W 090°17'2 2.0
2016-Nov-29 21:32N 29°58' W 090°15'0 0.2
2016-Nov-29 20:33N 29°58' W 090°15'0 0.2
2016-Nov-29 19:33N 29°58' W 090°15'0 0.0
2016-Nov-29 18:32N 29°58' W 090°15'0 0.0
2016-Nov-29 17:33N 29°58' W 090°15'0 0.1
2016-Nov-29 16:33N 29°58' W 090°15'5 4.6
2016-Nov-29 15:33N 29°57' W 090°09'5 4.6
2016-Nov-29 14:28N 29°57' W 090°03'4 0.5
2016-Nov-29 05:33N 29°57' W 090°08'5 5.2
2016-Nov-29 04:33N 29°58' W 090°14'0 0.3
2016-Nov-29 03:31N 29°58' W 090°14'0 0.0
2016-Nov-29 01:33N 29°58' W 090°14'2 1.6
2016-Nov-29 00:31N 29°58' W 090°16'  
2016-Nov-26 02:04N 31°51' W 091°18'12 7.2
2016-Nov-26 00:23N 31°59' W 091°07'6 6.9
2016-Nov-25 23:30N 32°05' W 091°04'3 3.5
2016-Nov-25 22:33N 32°08' W 091°05'6 6.0
2016-Nov-25 21:33N 32°12' W 090°60'8 8.4
2016-Nov-25 20:33N 32°19' W 090°54'4 4.2
2016-Nov-25 19:33N 32°21' W 090°59'7 6.9
2016-Nov-25 18:33N 32°26' W 091°04'8 7.7
2016-Nov-25 17:33N 32°34' W 091°06'  
Track history (hours):
 
Tides and Currents Weather Stations Pressure Air Temp Water Temp Dewpoint Dewpoint Depression Visibility Wind Speed Wind Dir Waves Ship Positions

Myra Eckstein

Owner: Marquette Transportation Co. LLC, Paducah, KY. More information available from US FCC via Universal Licensing System and Coast Guard Vessel Documentation Center.

Last reported at 2016-Dec-04 22:27 UTC. Time now 2016-Dec-06 08:16 UTC.
Position N 32°38' W 091°09'.

Length 47 m; draft 3.5 m.

Type: Towing. MMSI: 367505510.

Date/timePositionNaut miles runAvg speedWind from/ knotsBaromVisibWave heightAir tempDewpointWater temp
2016-Dec-04 22:27N 32°38' W 091°09'1 1.2
2016-Dec-04 21:33N 32°37' W 091°09'4 3.5
2016-Dec-04 20:32N 32°35' W 091°07'1 1.5
2016-Dec-04 19:33N 32°33' W 091°06'5 4.7
2016-Dec-04 18:33N 32°29' W 091°07'4 3.7
2016-Dec-04 17:33N 32°26' W 091°03'4 4.0
2016-Dec-04 16:33N 32°24' W 090°59'3 3.4
2016-Dec-04 15:33N 32°21' W 090°58'4 3.5
2016-Dec-04 14:33N 32°19' W 090°54'1 1.0
2016-Dec-04 13:33N 32°18' W 090°55'0 0.2
2016-Dec-04 12:33N 32°18' W 090°55'4 3.7
2016-Dec-04 11:33N 32°15' W 090°58'4 4.3
2016-Dec-04 10:33N 32°11' W 090°60'4 4.1
2016-Dec-04 09:32N 32°07' W 091°02'4 2.9
2016-Dec-04 08:14N 32°08' W 091°06'6 3.7
2016-Dec-04 06:29N 32°02' W 091°04'  
2016-Nov-29 22:24N 29°58' W 090°17'2 2.0
2016-Nov-29 21:32N 29°58' W 090°15'0 0.2
2016-Nov-29 20:33N 29°58' W 090°15'0 0.2
2016-Nov-29 19:33N 29°58' W 090°15'0 0.0
2016-Nov-29 18:32N 29°58' W 090°15'0 0.0
2016-Nov-29 17:33N 29°58' W 090°15'0 0.1
2016-Nov-29 16:33N 29°58' W 090°15'5 4.6
2016-Nov-29 15:33N 29°57' W 090°09'5 4.6
2016-Nov-29 14:28N 29°57' W 090°03'4 0.5
2016-Nov-29 05:33N 29°57' W 090°08'5 5.2
2016-Nov-29 04:33N 29°58' W 090°14'0 0.3
2016-Nov-29 03:31N 29°58' W 090°14'0 0.0
2016-Nov-29 01:33N 29°58' W 090°14'2 1.6
2016-Nov-29 00:31N 29°58' W 090°16'  
2016-Nov-26 02:04N 31°51' W 091°18'12 7.2
2016-Nov-26 00:23N 31°59' W 091°07'6 6.9
2016-Nov-25 23:30N 32°05' W 091°04'3 3.5
2016-Nov-25 22:33N 32°08' W 091°05'6 6.0
2016-Nov-25 21:33N 32°12' W 090°60'8 8.4
2016-Nov-25 20:33N 32°19' W 090°54'4 4.2
2016-Nov-25 19:33N 32°21' W 090°59'7 6.9
2016-Nov-25 18:33N 32°26' W 091°04'8 7.7
2016-Nov-25 17:33N 32°34' W 091°06'  

Dump ship's entire track history